sensor_id;sensor_type;location;lat;lon;timestamp;pressure;altitude;pressure_sealevel;temperature;humidity
8160;BME280;27404;52.398;9.646;2023-02-18T00:01:17;101191.00;;;5.58;100.00
8160;BME280;27404;52.398;9.646;2023-02-18T00:03:44;101186.69;;;5.49;100.00
8160;BME280;27404;52.398;9.646;2023-02-18T00:06:13;101186.41;;;5.44;100.00
8160;BME280;27404;52.398;9.646;2023-02-18T00:08:40;101189.78;;;5.46;100.00
8160;BME280;27404;52.398;9.646;2023-02-18T00:11:06;101197.16;;;5.52;100.00
8160;BME280;27404;52.398;9.646;2023-02-18T00:13:32;101188.38;;;5.50;100.00
8160;BME280;27404;52.398;9.646;2023-02-18T00:16:07;101177.16;;;5.53;100.00
8160;BME280;27404;52.398;9.646;2023-02-18T00:18:33;101184.97;;;5.63;100.00
8160;BME280;27404;52.398;9.646;2023-02-18T00:20:59;101180.78;;;5.60;100.00
8160;BME280;27404;52.398;9.646;2023-02-18T00:23:24;101176.41;;;5.59;100.00
8160;BME280;27404;52.398;9.646;2023-02-18T00:25:58;101182.28;;;5.63;100.00
8160;BME280;27404;52.398;9.646;2023-02-18T00:28:24;101177.88;;;5.62;100.00
8160;BME280;27404;52.398;9.646;2023-02-18T00:30:50;101174.13;;;5.63;100.00
8160;BME280;27404;52.398;9.646;2023-02-18T00:33:15;101177.13;;;5.68;100.00
8160;BME280;27404;52.398;9.646;2023-02-18T00:35:41;101185.91;;;5.70;100.00
8160;BME280;27404;52.398;9.646;2023-02-18T00:38:06;101179.25;;;5.73;100.00
8160;BME280;27404;52.398;9.646;2023-02-18T00:40:32;101192.53;;;5.68;100.00
8160;BME280;27404;52.398;9.646;2023-02-18T00:43:01;101187.97;;;5.68;100.00
8160;BME280;27404;52.398;9.646;2023-02-18T00:45:26;101178.72;;;5.62;100.00
8160;BME280;27404;52.398;9.646;2023-02-18T00:47:52;101182.28;;;5.63;100.00
8160;BME280;27404;52.398;9.646;2023-02-18T00:50:17;101183.75;;;5.66;100.00
8160;BME280;27404;52.398;9.646;2023-02-18T00:52:42;101178.31;;;5.66;100.00
8160;BME280;27404;52.398;9.646;2023-02-18T00:55:08;101181.81;;;5.59;100.00
8160;BME280;27404;52.398;9.646;2023-02-18T00:57:33;101182.56;;;5.53;100.00
8160;BME280;27404;52.398;9.646;2023-02-18T00:59:59;101180.13;;;5.43;100.00
8160;BME280;27404;52.398;9.646;2023-02-18T01:02:24;101180.03;;;5.52;100.00
8160;BME280;27404;52.398;9.646;2023-02-18T01:04:49;101180.22;;;5.65;100.00
8160;BME280;27404;52.398;9.646;2023-02-18T01:07:15;101188.16;;;5.67;100.00
8160;BME280;27404;52.398;9.646;2023-02-18T01:09:40;101181.16;;;5.57;100.00
8160;BME280;27404;52.398;9.646;2023-02-18T01:12:06;101188.81;;;5.54;100.00
8160;BME280;27404;52.398;9.646;2023-02-18T01:14:31;101194.53;;;5.59;100.00
8160;BME280;27404;52.398;9.646;2023-02-18T01:16:57;101194.22;;;5.69;100.00
8160;BME280;27404;52.398;9.646;2023-02-18T01:19:22;101191.50;;;5.69;100.00
8160;BME280;27404;52.398;9.646;2023-02-18T01:21:47;101173.38;;;5.69;100.00
8160;BME280;27404;52.398;9.646;2023-02-18T01:24:14;101182.72;;;5.67;100.00
8160;BME280;27404;52.398;9.646;2023-02-18T01:26:39;101179.84;;;5.68;100.00
8160;BME280;27404;52.398;9.646;2023-02-18T01:29:05;101185.44;;;5.82;100.00
8160;BME280;27404;52.398;9.646;2023-02-18T01:31:30;101181.47;;;5.84;100.00
8160;BME280;27404;52.398;9.646;2023-02-18T01:33:55;101175.66;;;5.87;100.00
8160;BME280;27404;52.398;9.646;2023-02-18T01:36:21;101177.19;;;5.90;100.00
8160;BME280;27404;52.398;9.646;2023-02-18T01:38:46;101173.44;;;5.91;100.00
8160;BME280;27404;52.398;9.646;2023-02-18T01:41:12;101172.13;;;5.87;100.00
8160;BME280;27404;52.398;9.646;2023-02-18T01:43:38;101165.19;;;5.84;100.00
8160;BME280;27404;52.398;9.646;2023-02-18T01:46:32;101166.31;;;5.90;100.00
8160;BME280;27404;52.398;9.646;2023-02-18T01:48:59;101169.03;;;5.90;100.00
8160;BME280;27404;52.398;9.646;2023-02-18T01:51:36;101172.13;;;5.87;100.00
8160;BME280;27404;52.398;9.646;2023-02-18T01:54:10;101175.94;;;5.92;100.00
8160;BME280;27404;52.398;9.646;2023-02-18T01:57:00;101168.28;;;5.96;100.00
8160;BME280;27404;52.398;9.646;2023-02-18T01:59:32;101164.06;;;5.93;100.00
8160;BME280;27404;52.398;9.646;2023-02-18T02:01:58;101163.59;;;6.05;100.00
8160;BME280;27404;52.398;9.646;2023-02-18T02:04:24;101157.00;;;6.14;100.00
8160;BME280;27404;52.398;9.646;2023-02-18T02:06:50;101153.81;;;6.11;100.00
8160;BME280;27404;52.398;9.646;2023-02-18T02:09:18;101148.00;;;6.14;100.00
8160;BME280;27404;52.398;9.646;2023-02-18T02:23:19;101145.13;;;6.15;100.00
8160;BME280;27404;52.398;9.646;2023-02-18T02:34:39;101140.13;;;6.19;100.00
8160;BME280;27404;52.398;9.646;2023-02-18T02:42:37;101139.94;;;6.20;100.00
8160;BME280;27404;52.398;9.646;2023-02-18T02:45:09;101129.78;;;6.29;100.00
8160;BME280;27404;52.398;9.646;2023-02-18T02:47:59;101131.66;;;6.29;100.00
8160;BME280;27404;52.398;9.646;2023-02-18T02:50:43;101121.59;;;6.22;100.00
8160;BME280;27404;52.398;9.646;2023-02-18T02:53:19;101116.72;;;6.18;100.00
8160;BME280;27404;52.398;9.646;2023-02-18T02:55:46;101116.47;;;6.13;100.00
8160;BME280;27404;52.398;9.646;2023-02-18T02:58:17;101121.84;;;6.06;100.00
8160;BME280;27404;52.398;9.646;2023-02-18T03:11:24;101108.91;;;6.08;100.00
8160;BME280;27404;52.398;9.646;2023-02-18T03:14:14;101102.19;;;6.04;100.00
8160;BME280;27404;52.398;9.646;2023-02-18T03:19:23;101092.25;;;6.11;100.00
8160;BME280;27404;52.398;9.646;2023-02-18T03:22:04;101088.03;;;6.08;100.00
8160;BME280;27404;52.398;9.646;2023-02-18T03:24:37;101082.84;;;6.14;100.00
8160;BME280;27404;52.398;9.646;2023-02-18T03:27:15;101089.00;;;6.22;100.00
8160;BME280;27404;52.398;9.646;2023-02-18T03:29:45;101071.13;;;6.35;100.00
8160;BME280;27404;52.398;9.646;2023-02-18T03:32:16;101070.72;;;6.38;100.00
8160;BME280;27404;52.398;9.646;2023-02-18T03:34:48;101067.59;;;6.34;100.00
8160;BME280;27404;52.398;9.646;2023-02-18T03:37:15;101064.88;;;6.34;100.00
8160;BME280;27404;52.398;9.646;2023-02-18T03:39:44;101069.69;;;6.39;100.00
8160;BME280;27404;52.398;9.646;2023-02-18T03:42:10;101071.38;;;6.40;100.00
8160;BME280;27404;52.398;9.646;2023-02-18T03:44:36;101061.78;;;6.44;100.00
8160;BME280;27404;52.398;9.646;2023-02-18T03:47:02;101049.47;;;6.42;100.00
8160;BME280;27404;52.398;9.646;2023-02-18T03:49:27;101055.31;;;6.45;100.00
8160;BME280;27404;52.398;9.646;2023-02-18T03:51:52;101052.69;;;6.52;100.00
8160;BME280;27404;52.398;9.646;2023-02-18T03:54:18;101040.41;;;6.63;100.00
8160;BME280;27404;52.398;9.646;2023-02-18T03:56:44;101048.13;;;6.59;100.00
8160;BME280;27404;52.398;9.646;2023-02-18T03:59:10;101045.84;;;6.63;100.00
8160;BME280;27404;52.398;9.646;2023-02-18T04:01:36;101041.22;;;6.63;100.00
8160;BME280;27404;52.398;9.646;2023-02-18T04:04:01;101044.16;;;6.62;100.00
8160;BME280;27404;52.398;9.646;2023-02-18T04:06:27;101047.31;;;6.65;100.00
8160;BME280;27404;52.398;9.646;2023-02-18T04:08:53;101044.41;;;6.67;100.00
8160;BME280;27404;52.398;9.646;2023-02-18T04:11:18;101045.03;;;6.62;100.00
8160;BME280;27404;52.398;9.646;2023-02-18T04:13:44;101047.13;;;6.67;100.00
8160;BME280;27404;52.398;9.646;2023-02-18T04:16:09;101030.78;;;6.60;100.00
8160;BME280;27404;52.398;9.646;2023-02-18T04:18:35;101029.13;;;6.59;100.00
8160;BME280;27404;52.398;9.646;2023-02-18T04:21:00;101040.81;;;6.60;100.00
8160;BME280;27404;52.398;9.646;2023-02-18T04:23:26;101036.81;;;6.56;100.00
8160;BME280;27404;52.398;9.646;2023-02-18T04:25:51;101042.06;;;6.57;100.00
8160;BME280;27404;52.398;9.646;2023-02-18T04:28:17;101033.44;;;6.54;100.00
8160;BME280;27404;52.398;9.646;2023-02-18T04:30:43;101027.84;;;6.55;100.00
8160;BME280;27404;52.398;9.646;2023-02-18T04:33:08;101035.91;;;6.48;100.00
8160;BME280;27404;52.398;9.646;2023-02-18T04:35:34;101037.56;;;6.43;100.00
8160;BME280;27404;52.398;9.646;2023-02-18T04:38:01;101023.09;;;6.35;100.00
8160;BME280;27404;52.398;9.646;2023-02-18T04:40:27;101017.56;;;6.22;100.00
8160;BME280;27404;52.398;9.646;2023-02-18T04:42:56;101022.56;;;6.18;100.00
8160;BME280;27404;52.398;9.646;2023-02-18T04:45:22;101023.59;;;6.17;100.00
8160;BME280;27404;52.398;9.646;2023-02-18T04:47:47;101005.81;;;6.15;100.00
8160;BME280;27404;52.398;9.646;2023-02-18T04:50:12;101009.53;;;6.07;100.00
8160;BME280;27404;52.398;9.646;2023-02-18T04:52:38;100994.84;;;6.01;100.00
8160;BME280;27404;52.398;9.646;2023-02-18T04:55:04;101002.59;;;6.04;100.00
8160;BME280;27404;52.398;9.646;2023-02-18T04:57:29;100990.22;;;5.95;100.00
8160;BME280;27404;52.398;9.646;2023-02-18T04:59:55;100987.28;;;5.97;100.00
8160;BME280;27404;52.398;9.646;2023-02-18T05:02:20;100991.63;;;5.91;100.00
8160;BME280;27404;52.398;9.646;2023-02-18T05:04:45;101000.81;;;5.90;100.00
8160;BME280;27404;52.398;9.646;2023-02-18T05:07:11;100994.13;;;5.92;100.00
8160;BME280;27404;52.398;9.646;2023-02-18T05:09:36;100999.94;;;5.89;100.00
8160;BME280;27404;52.398;9.646;2023-02-18T05:12:02;100992.19;;;5.86;100.00
8160;BME280;27404;52.398;9.646;2023-02-18T05:14:27;100974.72;;;5.89;100.00
8160;BME280;27404;52.398;9.646;2023-02-18T05:16:53;100965.91;;;5.87;100.00
8160;BME280;27404;52.398;9.646;2023-02-18T05:19:18;100972.78;;;5.83;100.00
8160;BME280;27404;52.398;9.646;2023-02-18T05:21:44;100965.56;;;5.97;100.00
8160;BME280;27404;52.398;9.646;2023-02-18T05:24:10;100967.00;;;5.92;100.00
8160;BME280;27404;52.398;9.646;2023-02-18T05:26:35;100958.25;;;5.97;100.00
8160;BME280;27404;52.398;9.646;2023-02-18T05:29:01;100957.66;;;5.95;100.00
8160;BME280;27404;52.398;9.646;2023-02-18T05:31:26;100950.75;;;5.99;100.00
8160;BME280;27404;52.398;9.646;2023-02-18T05:33:52;100954.72;;;5.97;100.00
8160;BME280;27404;52.398;9.646;2023-02-18T05:36:17;100946.78;;;5.95;100.00
8160;BME280;27404;52.398;9.646;2023-02-18T05:38:43;100948.91;;;6.00;100.00
8160;BME280;27404;52.398;9.646;2023-02-18T05:41:08;100937.03;;;6.01;100.00
8160;BME280;27404;52.398;9.646;2023-02-18T05:43:34;100925.50;;;5.99;100.00
8160;BME280;27404;52.398;9.646;2023-02-18T05:46:19;100917.38;;;5.99;100.00
8160;BME280;27404;52.398;9.646;2023-02-18T05:48:45;100914.47;;;6.00;100.00
8160;BME280;27404;52.398;9.646;2023-02-18T05:51:10;100909.91;;;6.01;100.00
8160;BME280;27404;52.398;9.646;2023-02-18T05:53:35;100906.97;;;6.02;100.00
8160;BME280;27404;52.398;9.646;2023-02-18T05:56:01;100904.06;;;6.04;100.00
8160;BME280;27404;52.398;9.646;2023-02-18T05:58:26;100902.19;;;6.04;100.00
8160;BME280;27404;52.398;9.646;2023-02-18T06:00:52;100896.34;;;6.07;100.00
8160;BME280;27404;52.398;9.646;2023-02-18T06:03:17;100890.34;;;6.12;100.00
8160;BME280;27404;52.398;9.646;2023-02-18T06:05:43;100884.06;;;6.12;100.00
8160;BME280;27404;52.398;9.646;2023-02-18T06:08:08;100886.38;;;6.15;100.00
8160;BME280;27404;52.398;9.646;2023-02-18T06:10:33;100878.06;;;6.16;100.00
8160;BME280;27404;52.398;9.646;2023-02-18T06:12:59;100874.69;;;6.14;100.00
8160;BME280;27404;52.398;9.646;2023-02-18T06:15:26;100861.13;;;6.14;100.00
8160;BME280;27404;52.398;9.646;2023-02-18T06:17:52;100860.97;;;6.22;100.00
8160;BME280;27404;52.398;9.646;2023-02-18T06:20:17;100859.28;;;6.21;100.00
8160;BME280;27404;52.398;9.646;2023-02-18T06:22:43;100850.75;;;6.25;100.00
8160;BME280;27404;52.398;9.646;2023-02-18T06:25:08;100836.13;;;6.26;100.00
8160;BME280;27404;52.398;9.646;2023-02-18T06:27:33;100823.38;;;6.26;100.00
8160;BME280;27404;52.398;9.646;2023-02-18T06:29:59;100820.03;;;6.31;100.00
8160;BME280;27404;52.398;9.646;2023-02-18T06:32:24;100813.81;;;6.37;100.00
8160;BME280;27404;52.398;9.646;2023-02-18T06:34:50;100811.13;;;6.44;100.00
8160;BME280;27404;52.398;9.646;2023-02-18T06:37:15;100813.00;;;6.43;100.00
8160;BME280;27404;52.398;9.646;2023-02-18T06:39:41;100808.41;;;6.44;100.00
8160;BME280;27404;52.398;9.646;2023-02-18T06:42:06;100800.06;;;6.45;100.00
8160;BME280;27404;52.398;9.646;2023-02-18T06:44:31;100801.31;;;6.49;100.00
8160;BME280;27404;52.398;9.646;2023-02-18T06:46:57;100793.22;;;6.56;100.00
8160;BME280;27404;52.398;9.646;2023-02-18T06:49:22;100801.75;;;6.53;100.00
8160;BME280;27404;52.398;9.646;2023-02-18T06:51:48;100786.28;;;6.54;100.00
8160;BME280;27404;52.398;9.646;2023-02-18T06:54:13;100772.94;;;6.52;100.00
8160;BME280;27404;52.398;9.646;2023-02-18T06:56:39;100785.66;;;6.51;100.00
8160;BME280;27404;52.398;9.646;2023-02-18T06:59:04;100767.91;;;6.56;100.00
8160;BME280;27404;52.398;9.646;2023-02-18T07:01:29;100763.75;;;6.60;100.00
8160;BME280;27404;52.398;9.646;2023-02-18T07:03:55;100762.50;;;6.62;100.00
8160;BME280;27404;52.398;9.646;2023-02-18T07:06:20;100761.88;;;6.60;100.00
8160;BME280;27404;52.398;9.646;2023-02-18T07:08:46;100762.28;;;6.64;100.00
8160;BME280;27404;52.398;9.646;2023-02-18T07:11:11;100749.53;;;6.64;100.00
8160;BME280;27404;52.398;9.646;2023-02-18T07:13:37;100743.91;;;6.66;100.00
8160;BME280;27404;52.398;9.646;2023-02-18T07:16:02;100746.22;;;6.69;100.00
8160;BME280;27404;52.398;9.646;2023-02-18T07:18:28;100745.16;;;6.70;100.00
8160;BME280;27404;52.398;9.646;2023-02-18T07:20:53;100744.53;;;6.68;100.00
8160;BME280;27404;52.398;9.646;2023-02-18T07:23:18;100736.59;;;6.73;100.00
8160;BME280;27404;52.398;9.646;2023-02-18T07:25:44;100725.31;;;6.76;100.00
8160;BME280;27404;52.398;9.646;2023-02-18T07:28:09;100715.06;;;6.78;100.00
8160;BME280;27404;52.398;9.646;2023-02-18T07:30:35;100708.38;;;6.81;100.00
8160;BME280;27404;52.398;9.646;2023-02-18T07:33:00;100707.13;;;6.84;100.00
8160;BME280;27404;52.398;9.646;2023-02-18T07:35:26;100705.69;;;6.88;100.00
8160;BME280;27404;52.398;9.646;2023-02-18T07:37:51;100702.72;;;6.89;100.00
8160;BME280;27404;52.398;9.646;2023-02-18T07:40:20;100701.47;;;6.99;100.00
8160;BME280;27404;52.398;9.646;2023-02-18T07:42:47;100690.19;;;7.02;100.00
8160;BME280;27404;52.398;9.646;2023-02-18T07:45:12;100681.19;;;7.01;100.00
8160;BME280;27404;52.398;9.646;2023-02-18T07:47:38;100677.63;;;7.07;100.00
8160;BME280;27404;52.398;9.646;2023-02-18T07:50:06;100677.41;;;7.16;100.00
8160;BME280;27404;52.398;9.646;2023-02-18T07:52:32;100676.34;;;7.30;100.00
8160;BME280;27404;52.398;9.646;2023-02-18T07:54:57;100666.00;;;7.52;100.00
8160;BME280;27404;52.398;9.646;2023-02-18T07:57:22;100673.28;;;7.65;100.00
8160;BME280;27404;52.398;9.646;2023-02-18T07:59:48;100658.31;;;7.88;100.00
8160;BME280;27404;52.398;9.646;2023-02-18T08:02:20;100663.69;;;8.02;100.00
8160;BME280;27404;52.398;9.646;2023-02-18T08:04:46;100656.16;;;8.04;100.00
8160;BME280;27404;52.398;9.646;2023-02-18T08:07:13;100665.50;;;8.14;100.00
8160;BME280;27404;52.398;9.646;2023-02-18T08:09:39;100655.63;;;8.20;100.00
8160;BME280;27404;52.398;9.646;2023-02-18T08:12:05;100652.44;;;8.30;100.00
8160;BME280;27404;52.398;9.646;2023-02-18T08:14:30;100650.50;;;8.37;100.00
8160;BME280;27404;52.398;9.646;2023-02-18T08:16:56;100655.31;;;8.35;100.00
8160;BME280;27404;52.398;9.646;2023-02-18T08:19:21;100653.38;;;8.42;100.00
8160;BME280;27404;52.398;9.646;2023-02-18T08:21:47;100642.50;;;8.42;100.00
8160;BME280;27404;52.398;9.646;2023-02-18T08:24:12;100639.09;;;8.47;100.00
8160;BME280;27404;52.398;9.646;2023-02-18T08:26:37;100635.97;;;8.50;100.00
8160;BME280;27404;52.398;9.646;2023-02-18T08:29:03;100635.13;;;8.50;100.00
8160;BME280;27404;52.398;9.646;2023-02-18T08:31:30;100628.34;;;8.59;100.00
8160;BME280;27404;52.398;9.646;2023-02-18T08:33:57;100630.59;;;8.62;100.00
8160;BME280;27404;52.398;9.646;2023-02-18T08:36:23;100625.63;;;8.59;100.00
8160;BME280;27404;52.398;9.646;2023-02-18T08:38:49;100615.94;;;8.63;100.00
8160;BME280;27404;52.398;9.646;2023-02-18T08:41:16;100627.00;;;8.68;100.00
8160;BME280;27404;52.398;9.646;2023-02-18T08:43:43;100616.94;;;8.69;100.00
8160;BME280;27404;52.398;9.646;2023-02-18T08:46:09;100612.47;;;8.74;100.00
8160;BME280;27404;52.398;9.646;2023-02-18T08:48:35;100612.25;;;8.76;100.00
8160;BME280;27404;52.398;9.646;2023-02-18T08:51:13;100603.41;;;8.81;100.00
8160;BME280;27404;52.398;9.646;2023-02-18T08:53:39;100605.47;;;8.85;100.00
8160;BME280;27404;52.398;9.646;2023-02-18T08:56:09;100592.00;;;8.91;100.00
8160;BME280;27404;52.398;9.646;2023-02-18T08:58:35;100595.84;;;9.01;100.00
8160;BME280;27404;52.398;9.646;2023-02-18T09:01:06;100600.63;;;9.06;100.00
8160;BME280;27404;52.398;9.646;2023-02-18T09:03:33;100593.66;;;9.10;100.00
8160;BME280;27404;52.398;9.646;2023-02-18T09:05:59;100591.53;;;9.12;100.00
8160;BME280;27404;52.398;9.646;2023-02-18T09:08:24;100586.31;;;9.11;100.00
8160;BME280;27404;52.398;9.646;2023-02-18T09:10:54;100576.38;;;9.16;100.00
8160;BME280;27404;52.398;9.646;2023-02-18T09:13:20;100586.03;;;9.19;100.00
8160;BME280;27404;52.398;9.646;2023-02-18T09:15:55;100573.00;;;9.21;100.00
8160;BME280;27404;52.398;9.646;2023-02-18T09:18:21;100567.44;;;9.28;100.00
8160;BME280;27404;52.398;9.646;2023-02-18T09:20:46;100558.94;;;9.36;100.00
8160;BME280;27404;52.398;9.646;2023-02-18T09:23:12;100544.53;;;9.47;100.00
8160;BME280;27404;52.398;9.646;2023-02-18T09:25:39;100576.56;;;9.52;100.00
8160;BME280;27404;52.398;9.646;2023-02-18T09:28:04;100557.97;;;9.61;100.00
8160;BME280;27404;52.398;9.646;2023-02-18T09:30:29;100569.03;;;9.66;100.00
8160;BME280;27404;52.398;9.646;2023-02-18T09:32:55;100566.09;;;9.68;100.00
8160;BME280;27404;52.398;9.646;2023-02-18T09:35:20;100562.50;;;9.67;100.00
8160;BME280;27404;52.398;9.646;2023-02-18T09:37:46;100549.84;;;9.73;100.00
8160;BME280;27404;52.398;9.646;2023-02-18T09:40:25;100564.56;;;9.72;100.00
8160;BME280;27404;52.398;9.646;2023-02-18T09:42:54;100556.59;;;9.70;100.00
8160;BME280;27404;52.398;9.646;2023-02-18T09:45:20;100560.31;;;9.76;100.00
8160;BME280;27404;52.398;9.646;2023-02-18T09:47:47;100562.44;;;9.74;100.00
8160;BME280;27404;52.398;9.646;2023-02-18T09:50:19;100566.69;;;9.70;100.00
8160;BME280;27404;52.398;9.646;2023-02-18T09:52:46;100559.31;;;9.70;100.00
8160;BME280;27404;52.398;9.646;2023-02-18T09:55:19;100557.25;;;9.54;100.00
8160;BME280;27404;52.398;9.646;2023-02-18T09:57:58;100550.03;;;9.59;100.00
8160;BME280;27404;52.398;9.646;2023-02-18T10:00:37;100562.25;;;9.57;100.00
8160;BME280;27404;52.398;9.646;2023-02-18T10:03:07;100539.81;;;9.55;100.00
8160;BME280;27404;52.398;9.646;2023-02-18T10:05:36;100540.75;;;9.48;100.00
8160;BME280;27404;52.398;9.646;2023-02-18T10:08:06;100538.84;;;9.49;100.00
8160;BME280;27404;52.398;9.646;2023-02-18T10:10:44;100538.69;;;9.44;100.00
8160;BME280;27404;52.398;9.646;2023-02-18T10:13:31;100542.88;;;9.46;100.00
8160;BME280;27404;52.398;9.646;2023-02-18T10:15:57;100541.09;;;9.52;100.00
8160;BME280;27404;52.398;9.646;2023-02-18T10:18:24;100542.19;;;9.63;100.00
8160;BME280;27404;52.398;9.646;2023-02-18T10:20:52;100548.66;;;9.69;100.00
8160;BME280;27404;52.398;9.646;2023-02-18T10:23:20;100545.00;;;9.75;100.00
8160;BME280;27404;52.398;9.646;2023-02-18T10:25:47;100537.16;;;9.78;100.00
8160;BME280;27404;52.398;9.646;2023-02-18T10:28:22;100553.19;;;9.75;100.00
8160;BME280;27404;52.398;9.646;2023-02-18T10:30:57;100543.50;;;9.60;100.00
8160;BME280;27404;52.398;9.646;2023-02-18T10:38:44;100557.19;;;9.42;100.00
8160;BME280;27404;52.398;9.646;2023-02-18T10:44:23;100537.72;;;9.38;100.00
8160;BME280;27404;52.398;9.646;2023-02-18T10:49:29;100536.81;;;9.44;100.00
8160;BME280;27404;52.398;9.646;2023-02-18T10:52:02;100524.91;;;9.39;100.00
8160;BME280;27404;52.398;9.646;2023-02-18T10:57:18;100525.44;;;9.47;100.00
8160;BME280;27404;52.398;9.646;2023-02-18T11:02:24;100523.00;;;9.58;100.00
8160;BME280;27404;52.398;9.646;2023-02-18T11:04:50;100512.44;;;9.61;100.00
8160;BME280;27404;52.398;9.646;2023-02-18T11:07:25;100507.69;;;9.69;100.00
8160;BME280;27404;52.398;9.646;2023-02-18T11:09:53;100522.41;;;9.68;100.00
8160;BME280;27404;52.398;9.646;2023-02-18T11:12:28;100523.34;;;9.61;100.00
8160;BME280;27404;52.398;9.646;2023-02-18T11:17:35;100532.41;;;9.43;100.00
8160;BME280;27404;52.398;9.646;2023-02-18T11:22:43;100533.66;;;9.29;100.00
8160;BME280;27404;52.398;9.646;2023-02-18T11:25:26;100534.81;;;9.21;100.00
8160;BME280;27404;52.398;9.646;2023-02-18T11:27:58;100523.75;;;9.16;100.00
8160;BME280;27404;52.398;9.646;2023-02-18T11:30:33;100539.88;;;9.17;100.00
8160;BME280;27404;52.398;9.646;2023-02-18T11:33:42;100530.78;;;9.24;100.00
8160;BME280;27404;52.398;9.646;2023-02-18T11:38:52;100519.13;;;9.16;100.00
8160;BME280;27404;52.398;9.646;2023-02-18T11:41:31;100538.34;;;9.22;100.00
8160;BME280;27404;52.398;9.646;2023-02-18T11:43:58;100528.75;;;9.19;100.00
8160;BME280;27404;52.398;9.646;2023-02-18T11:46:25;100523.75;;;9.16;100.00
8160;BME280;27404;52.398;9.646;2023-02-18T11:48:52;100528.16;;;9.17;100.00
8160;BME280;27404;52.398;9.646;2023-02-18T11:51:32;100524.28;;;9.06;100.00
8160;BME280;27404;52.398;9.646;2023-02-18T11:54:19;100523.00;;;9.09;100.00
8160;BME280;27404;52.398;9.646;2023-02-18T11:56:55;100520.88;;;9.11;100.00
8160;BME280;27404;52.398;9.646;2023-02-18T11:59:21;100518.44;;;9.02;100.00
8160;BME280;27404;52.398;9.646;2023-02-18T12:01:56;100536.94;;;9.00;100.00
8160;BME280;27404;52.398;9.646;2023-02-18T12:04:37;100516.84;;;8.95;100.00
8160;BME280;27404;52.398;9.646;2023-02-18T12:09:43;100510.88;;;8.86;100.00
8160;BME280;27404;52.398;9.646;2023-02-18T12:12:15;100515.22;;;8.75;100.00
8160;BME280;27404;52.398;9.646;2023-02-18T12:14:43;100506.34;;;8.80;100.00
8160;BME280;27404;52.398;9.646;2023-02-18T12:25:14;100516.78;;;8.83;100.00
8160;BME280;27404;52.398;9.646;2023-02-18T12:35:43;100540.41;;;8.70;100.00
8160;BME280;27404;52.398;9.646;2023-02-18T12:44:29;100532.91;;;8.66;100.00
8160;BME280;27404;52.398;9.646;2023-02-18T12:47:21;100525.78;;;8.65;100.00
8160;BME280;27404;52.398;9.646;2023-02-18T12:58:16;100555.16;;;8.63;100.00
8160;BME280;27404;52.398;9.646;2023-02-18T13:13:58;100553.81;;;8.72;100.00
8160;BME280;27404;52.398;9.646;2023-02-18T13:16:26;100550.41;;;8.77;100.00
8160;BME280;27404;52.398;9.646;2023-02-18T13:19:18;100546.44;;;8.72;100.00
8160;BME280;27404;52.398;9.646;2023-02-18T13:21:48;100544.34;;;8.74;100.00
8160;BME280;27404;52.398;9.646;2023-02-18T13:24:42;100549.41;;;8.71;100.00
8160;BME280;27404;52.398;9.646;2023-02-18T13:34:53;100578.84;;;8.62;100.00
8160;BME280;27404;52.398;9.646;2023-02-18T13:40:18;100573.28;;;8.50;100.00
8160;BME280;27404;52.398;9.646;2023-02-18T13:42:44;100575.13;;;8.56;100.00
8160;BME280;27404;52.398;9.646;2023-02-18T13:45:31;100572.41;;;8.56;100.00
8160;BME280;27404;52.398;9.646;2023-02-18T13:47:58;100587.09;;;8.55;100.00
8160;BME280;27404;52.398;9.646;2023-02-18T13:50:28;100579.34;;;8.52;100.00
8160;BME280;27404;52.398;9.646;2023-02-18T14:01:01;100592.28;;;8.82;100.00
8160;BME280;27404;52.398;9.646;2023-02-18T14:08:43;100599.91;;;8.73;100.00
8160;BME280;27404;52.398;9.646;2023-02-18T14:13:54;100607.91;;;8.68;100.00
8160;BME280;27404;52.398;9.646;2023-02-18T14:16:20;100604.44;;;8.61;100.00
8160;BME280;27404;52.398;9.646;2023-02-18T14:26:08;100596.34;;;8.48;100.00
8160;BME280;27404;52.398;9.646;2023-02-18T14:28:44;100621.06;;;8.46;100.00
8160;BME280;27404;52.398;9.646;2023-02-18T14:33:43;100619.84;;;8.49;100.00
8160;BME280;27404;52.398;9.646;2023-02-18T14:50:41;100639.34;;;8.71;100.00
8160;BME280;27404;52.398;9.646;2023-02-18T14:53:22;100644.19;;;8.69;100.00
8160;BME280;27404;52.398;9.646;2023-02-18T14:55:52;100642.53;;;8.68;100.00
8160;BME280;27404;52.398;9.646;2023-02-18T14:58:29;100642.06;;;8.71;100.00
8160;BME280;27404;52.398;9.646;2023-02-18T15:00:57;100635.06;;;8.56;100.00
8160;BME280;27404;52.398;9.646;2023-02-18T15:03:26;100651.34;;;8.63;100.00
8160;BME280;27404;52.398;9.646;2023-02-18T15:05:51;100647.81;;;8.63;100.00
8160;BME280;27404;52.398;9.646;2023-02-18T15:08:24;100660.38;;;8.64;100.00
8160;BME280;27404;52.398;9.646;2023-02-18T15:10:55;100654.53;;;8.60;100.00
8160;BME280;27404;52.398;9.646;2023-02-18T15:13:27;100655.97;;;8.63;100.00
8160;BME280;27404;52.398;9.646;2023-02-18T15:15:56;100665.59;;;8.65;100.00
8160;BME280;27404;52.398;9.646;2023-02-18T15:18:35;100668.31;;;8.65;100.00
8160;BME280;27404;52.398;9.646;2023-02-18T15:21:02;100684.47;;;8.67;100.00
8160;BME280;27404;52.398;9.646;2023-02-18T15:23:29;100682.56;;;8.67;100.00
8160;BME280;27404;52.398;9.646;2023-02-18T15:25:56;100680.06;;;8.66;100.00
8160;BME280;27404;52.398;9.646;2023-02-18T15:28:27;100687.63;;;8.64;100.00
8160;BME280;27404;52.398;9.646;2023-02-18T15:30:56;100676.13;;;8.62;100.00
8160;BME280;27404;52.398;9.646;2023-02-18T15:33:22;100681.72;;;8.67;100.00
8160;BME280;27404;52.398;9.646;2023-02-18T15:35:48;100690.91;;;8.72;100.00
8160;BME280;27404;52.398;9.646;2023-02-18T15:38:15;100681.13;;;8.65;100.00
8160;BME280;27404;52.398;9.646;2023-02-18T15:40:42;100690.72;;;8.67;100.00
8160;BME280;27404;52.398;9.646;2023-02-18T15:43:08;100688.00;;;8.67;100.00
8160;BME280;27404;52.398;9.646;2023-02-18T15:45:39;100695.81;;;8.64;100.00
8160;BME280;27404;52.398;9.646;2023-02-18T15:48:06;100697.69;;;8.63;100.00